sensor_id;sensor_type;location;lat;lon;timestamp;pressure;altitude;pressure_sealevel;temperature;humidity
49973;BME280;65693;49.798;10.968;2023-05-11T00:01:12;97897.63;;;15.50;52.91
49973;BME280;65693;49.798;10.968;2023-05-11T00:03:39;97902.13;;;15.50;52.99
49973;BME280;65693;49.798;10.968;2023-05-11T00:06:05;97900.44;;;15.49;53.12
49973;BME280;65693;49.798;10.968;2023-05-11T00:08:33;97910.13;;;15.50;52.92
49973;BME280;65693;49.798;10.968;2023-05-11T00:11:00;97901.28;;;15.49;52.91
49973;BME280;65693;49.798;10.968;2023-05-11T00:13:26;97900.44;;;15.49;53.04
49973;BME280;65693;49.798;10.968;2023-05-11T00:15:52;97900.44;;;15.49;52.90
49973;BME280;65693;49.798;10.968;2023-05-11T00:18:19;97899.69;;;15.47;53.09
49973;BME280;65693;49.798;10.968;2023-05-11T00:20:46;97902.25;;;15.48;52.95
49973;BME280;65693;49.798;10.968;2023-05-11T00:23:12;97900.56;;;15.47;53.05
49973;BME280;65693;49.798;10.968;2023-05-11T00:25:40;97895.34;;;15.46;53.11
49973;BME280;65693;49.798;10.968;2023-05-11T00:28:06;97892.69;;;15.46;53.02
49973;BME280;65693;49.798;10.968;2023-05-11T00:30:34;97891.69;;;15.47;53.04
49973;BME280;65693;49.798;10.968;2023-05-11T00:33:00;97887.50;;;15.44;53.05
49973;BME280;65693;49.798;10.968;2023-05-11T00:35:27;97884.81;;;15.44;53.12
49973;BME280;65693;49.798;10.968;2023-05-11T00:37:53;97887.50;;;15.44;53.10
49973;BME280;65693;49.798;10.968;2023-05-11T00:40:21;97888.31;;;15.45;53.04
49973;BME280;65693;49.798;10.968;2023-05-11T00:42:48;97893.66;;;15.45;53.17
49973;BME280;65693;49.798;10.968;2023-05-11T00:45:15;97882.97;;;15.45;53.24
49973;BME280;65693;49.798;10.968;2023-05-11T00:47:41;97880.31;;;15.45;53.08
49973;BME280;65693;49.798;10.968;2023-05-11T00:50:08;97881.44;;;15.42;53.11
49973;BME280;65693;49.798;10.968;2023-05-11T00:52:35;97884.13;;;15.42;53.21
49973;BME280;65693;49.798;10.968;2023-05-11T00:55:02;97877.91;;;15.42;53.03
49973;BME280;65693;49.798;10.968;2023-05-11T00:57:28;97878.91;;;15.41;52.98
49973;BME280;65693;49.798;10.968;2023-05-11T01:00:00;97877.91;;;15.42;53.11
49973;BME280;65693;49.798;10.968;2023-05-11T01:02:27;97879.75;;;15.41;53.17
49973;BME280;65693;49.798;10.968;2023-05-11T01:04:53;97882.00;;;15.46;53.05
49973;BME280;65693;49.798;10.968;2023-05-11T01:07:23;97881.56;;;15.41;53.15
49973;BME280;65693;49.798;10.968;2023-05-11T01:09:57;97881.56;;;15.41;53.04
49973;BME280;65693;49.798;10.968;2023-05-11T01:12:29;97879.88;;;15.40;53.12
49973;BME280;65693;49.798;10.968;2023-05-11T01:15:04;97885.94;;;15.42;53.22
49973;BME280;65693;49.798;10.968;2023-05-11T01:17:37;97884.13;;;15.42;53.02
49973;BME280;65693;49.798;10.968;2023-05-11T01:20:11;97882.56;;;15.40;52.96
49973;BME280;65693;49.798;10.968;2023-05-11T01:22:49;97877.34;;;15.38;53.17
49973;BME280;65693;49.798;10.968;2023-05-11T01:25:31;97883.53;;;15.39;53.13
49973;BME280;65693;49.798;10.968;2023-05-11T01:28:22;97876.50;;;15.38;53.22
49973;BME280;65693;49.798;10.968;2023-05-11T01:30:51;97881.84;;;15.38;53.28
49973;BME280;65693;49.798;10.968;2023-05-11T01:33:24;97880.00;;;15.38;53.18
49973;BME280;65693;49.798;10.968;2023-05-11T01:35:55;97880.16;;;15.36;53.39
49973;BME280;65693;49.798;10.968;2023-05-11T01:38:29;97880.28;;;15.35;53.24
49973;BME280;65693;49.798;10.968;2023-05-11T01:40:59;97876.78;;;15.34;53.26
49973;BME280;65693;49.798;10.968;2023-05-11T01:43:29;97874.13;;;15.34;53.08
49973;BME280;65693;49.798;10.968;2023-05-11T01:46:00;97878.47;;;15.35;53.13
49973;BME280;65693;49.798;10.968;2023-05-11T01:48:30;97877.63;;;15.35;53.30
49973;BME280;65693;49.798;10.968;2023-05-11T01:51:00;97881.28;;;15.34;53.34
49973;BME280;65693;49.798;10.968;2023-05-11T01:53:32;97886.59;;;15.34;53.14
49973;BME280;65693;49.798;10.968;2023-05-11T01:56:00;97883.13;;;15.33;53.25
49973;BME280;65693;49.798;10.968;2023-05-11T01:58:28;97880.56;;;15.32;53.36
49973;BME280;65693;49.798;10.968;2023-05-11T02:00:55;97879.59;;;15.33;53.29
49973;BME280;65693;49.798;10.968;2023-05-11T02:03:27;97881.44;;;15.32;53.14
49973;BME280;65693;49.798;10.968;2023-05-11T02:05:55;97886.75;;;15.32;53.41
49973;BME280;65693;49.798;10.968;2023-05-11T02:08:24;97883.25;;;15.32;53.34
49973;BME280;65693;49.798;10.968;2023-05-11T02:10:52;97884.66;;;15.36;53.32
49973;BME280;65693;49.798;10.968;2023-05-11T02:13:20;97890.41;;;15.31;53.36
49973;BME280;65693;49.798;10.968;2023-05-11T02:15:50;97887.75;;;15.31;53.34
49973;BME280;65693;49.798;10.968;2023-05-11T02:18:18;97893.91;;;15.32;53.53
49973;BME280;65693;49.798;10.968;2023-05-11T02:20:48;97875.22;;;15.32;53.32
49973;BME280;65693;49.798;10.968;2023-05-11T02:23:15;97882.41;;;15.31;53.30
49973;BME280;65693;49.798;10.968;2023-05-11T02:25:43;97877.06;;;15.31;53.26
49973;BME280;65693;49.798;10.968;2023-05-11T02:28:10;97880.84;;;15.29;53.14
49973;BME280;65693;49.798;10.968;2023-05-11T02:30:40;97879.00;;;15.29;53.17
49973;BME280;65693;49.798;10.968;2023-05-11T02:33:13;97877.19;;;15.30;53.30
49973;BME280;65693;49.798;10.968;2023-05-11T02:35:42;97877.19;;;15.30;53.30
49973;BME280;65693;49.798;10.968;2023-05-11T02:38:11;97882.53;;;15.30;53.30
49973;BME280;65693;49.798;10.968;2023-05-11T02:40:43;97879.16;;;15.28;53.29
49973;BME280;65693;49.798;10.968;2023-05-11T02:43:12;97876.50;;;15.28;53.30
49973;BME280;65693;49.798;10.968;2023-05-11T02:45:42;97877.47;;;15.27;53.24
49973;BME280;65693;49.798;10.968;2023-05-11T02:48:12;97865.94;;;15.26;53.37
49973;BME280;65693;49.798;10.968;2023-05-11T02:50:43;97869.47;;;15.27;53.09
49973;BME280;65693;49.798;10.968;2023-05-11T02:53:15;97871.28;;;15.26;53.42
49973;BME280;65693;49.798;10.968;2023-05-11T02:55:44;97873.81;;;15.28;53.35
49973;BME280;65693;49.798;10.968;2023-05-11T02:58:11;97874.09;;;15.25;53.31
49973;BME280;65693;49.798;10.968;2023-05-11T03:00:38;97873.94;;;15.26;53.24
49973;BME280;65693;49.798;10.968;2023-05-11T03:03:04;97869.59;;;15.25;53.12
49973;BME280;65693;49.798;10.968;2023-05-11T03:05:31;97873.25;;;15.24;53.37
49973;BME280;65693;49.798;10.968;2023-05-11T03:07:58;97875.91;;;15.24;53.61
49973;BME280;65693;49.798;10.968;2023-05-11T03:10:27;97870.56;;;15.24;53.26
49973;BME280;65693;49.798;10.968;2023-05-11T03:12:53;97871.69;;;15.21;53.44
49973;BME280;65693;49.798;10.968;2023-05-11T03:15:21;97871.56;;;15.23;53.39
49973;BME280;65693;49.798;10.968;2023-05-11T03:17:48;97869.00;;;15.21;53.49
49973;BME280;65693;49.798;10.968;2023-05-11T03:20:15;97869.16;;;15.20;53.32
49973;BME280;65693;49.798;10.968;2023-05-11T03:22:43;97875.31;;;15.20;53.33
49973;BME280;65693;49.798;10.968;2023-05-11T03:25:13;97876.06;;;15.23;53.42
49973;BME280;65693;49.798;10.968;2023-05-11T03:27:42;97865.63;;;15.19;53.50
49973;BME280;65693;49.798;10.968;2023-05-11T03:30:12;97878.16;;;15.19;53.43
49973;BME280;65693;49.798;10.968;2023-05-11T03:32:39;97873.63;;;15.19;53.41
49973;BME280;65693;49.798;10.968;2023-05-11T03:35:07;97867.47;;;15.19;53.42
49973;BME280;65693;49.798;10.968;2023-05-11T03:37:35;97865.78;;;15.18;53.45
49973;BME280;65693;49.798;10.968;2023-05-11T03:40:03;97867.47;;;15.19;53.24
49973;BME280;65693;49.798;10.968;2023-05-11T03:42:32;97863.94;;;15.18;53.43
49973;BME280;65693;49.798;10.968;2023-05-11T03:45:01;97867.47;;;15.19;53.20
49973;BME280;65693;49.798;10.968;2023-05-11T03:47:30;97866.78;;;15.17;53.43
49973;BME280;65693;49.798;10.968;2023-05-11T03:49:58;97867.75;;;15.16;53.57
49973;BME280;65693;49.798;10.968;2023-05-11T03:52:26;97870.41;;;15.16;53.62
49973;BME280;65693;49.798;10.968;2023-05-11T03:54:53;97858.75;;;15.17;53.22
49973;BME280;65693;49.798;10.968;2023-05-11T03:57:20;97865.09;;;15.16;53.40
49973;BME280;65693;49.798;10.968;2023-05-11T03:59:46;97867.75;;;15.16;53.47
49973;BME280;65693;49.798;10.968;2023-05-11T04:02:14;97865.22;;;15.14;53.62
49973;BME280;65693;49.798;10.968;2023-05-11T04:04:41;97864.34;;;15.14;53.33
49973;BME280;65693;49.798;10.968;2023-05-11T04:07:07;97859.88;;;15.14;53.40
49973;BME280;65693;49.798;10.968;2023-05-11T04:09:34;97854.66;;;15.13;53.43
49973;BME280;65693;49.798;10.968;2023-05-11T04:12:00;97851.00;;;15.14;53.63
49973;BME280;65693;49.798;10.968;2023-05-11T04:14:27;97855.50;;;15.13;53.36
49973;BME280;65693;49.798;10.968;2023-05-11T04:16:53;97856.34;;;15.14;53.50
49973;BME280;65693;49.798;10.968;2023-05-11T04:19:21;97856.34;;;15.14;53.49
49973;BME280;65693;49.798;10.968;2023-05-11T04:21:47;97854.81;;;15.11;53.48
49973;BME280;65693;49.798;10.968;2023-05-11T04:24:14;97848.59;;;15.11;53.38
49973;BME280;65693;49.798;10.968;2023-05-11T04:26:40;97852.97;;;15.12;53.62
49973;BME280;65693;49.798;10.968;2023-05-11T04:29:07;97860.97;;;15.12;53.55
49973;BME280;65693;49.798;10.968;2023-05-11T04:31:33;97853.25;;;15.08;53.54
49973;BME280;65693;49.798;10.968;2023-05-11T04:33:59;97859.16;;;15.12;53.26
49973;BME280;65693;49.798;10.968;2023-05-11T04:36:27;97851.97;;;15.13;53.50
49973;BME280;65693;49.798;10.968;2023-05-11T04:38:54;97853.53;;;15.15;53.56
49973;BME280;65693;49.798;10.968;2023-05-11T04:41:20;97860.72;;;15.15;53.60
49973;BME280;65693;49.798;10.968;2023-05-11T04:43:48;97854.41;;;15.16;53.60
49973;BME280;65693;49.798;10.968;2023-05-11T04:46:14;97859.16;;;15.12;53.51
49973;BME280;65693;49.798;10.968;2023-05-11T04:48:41;97860.25;;;15.10;53.56
49973;BME280;65693;49.798;10.968;2023-05-11T04:51:07;97857.59;;;15.10;53.39
49973;BME280;65693;49.798;10.968;2023-05-11T04:53:35;97856.88;;;15.07;53.44
49973;BME280;65693;49.798;10.968;2023-05-11T04:56:02;97849.75;;;15.08;53.65
49973;BME280;65693;49.798;10.968;2023-05-11T04:58:28;97862.94;;;15.10;53.59
49973;BME280;65693;49.798;10.968;2023-05-11T05:00:54;97861.41;;;15.07;53.67
49973;BME280;65693;49.798;10.968;2023-05-11T05:03:21;97868.53;;;15.06;53.55
49973;BME280;65693;49.798;10.968;2023-05-11T05:05:47;97866.75;;;15.07;53.61
49973;BME280;65693;49.798;10.968;2023-05-11T05:08:14;97869.25;;;15.08;53.48
49973;BME280;65693;49.798;10.968;2023-05-11T05:10:43;97872.06;;;15.07;53.71
49973;BME280;65693;49.798;10.968;2023-05-11T05:13:09;97873.19;;;15.04;53.84
49973;BME280;65693;49.798;10.968;2023-05-11T05:15:35;97878.41;;;15.06;53.74
49973;BME280;65693;49.798;10.968;2023-05-11T05:18:02;97870.94;;;15.10;53.51
49973;BME280;65693;49.798;10.968;2023-05-11T05:20:28;97874.75;;;15.07;54.48
49973;BME280;65693;49.798;10.968;2023-05-11T05:22:55;97880.22;;;15.05;54.39
49973;BME280;65693;49.798;10.968;2023-05-11T05:25:23;97881.06;;;15.06;54.42
49973;BME280;65693;49.798;10.968;2023-05-11T05:27:51;97881.19;;;15.04;54.35
49973;BME280;65693;49.798;10.968;2023-05-11T05:30:17;97878.63;;;15.03;54.23
49973;BME280;65693;49.798;10.968;2023-05-11T05:32:44;97884.84;;;15.03;54.34
49973;BME280;65693;49.798;10.968;2023-05-11T05:35:11;97876.94;;;15.02;54.17
49973;BME280;65693;49.798;10.968;2023-05-11T05:37:37;97883.16;;;15.02;54.26
49973;BME280;65693;49.798;10.968;2023-05-11T05:40:05;97884.84;;;15.03;54.17
49973;BME280;65693;49.798;10.968;2023-05-11T05:42:31;97888.47;;;15.02;54.25
49973;BME280;65693;49.798;10.968;2023-05-11T05:44:59;97883.97;;;15.03;54.10
49973;BME280;65693;49.798;10.968;2023-05-11T05:47:26;97892.13;;;15.01;54.07
49973;BME280;65693;49.798;10.968;2023-05-11T05:49:52;97891.97;;;15.03;54.02
49973;BME280;65693;49.798;10.968;2023-05-11T05:52:18;97886.81;;;15.01;54.04
49973;BME280;65693;49.798;10.968;2023-05-11T05:54:45;97887.63;;;15.02;54.06
49973;BME280;65693;49.798;10.968;2023-05-11T05:57:11;97893.81;;;15.02;54.02
49973;BME280;65693;49.798;10.968;2023-05-11T05:59:37;97890.41;;;15.00;53.85
49973;BME280;65693;49.798;10.968;2023-05-11T06:02:05;97895.63;;;15.02;54.08
49973;BME280;65693;49.798;10.968;2023-05-11T06:04:32;97897.47;;;15.01;54.00
49973;BME280;65693;49.798;10.968;2023-05-11T06:06:58;97895.63;;;15.02;54.16
49973;BME280;65693;49.798;10.968;2023-05-11T06:09:25;97899.25;;;15.01;54.21
49973;BME280;65693;49.798;10.968;2023-05-11T06:11:51;97901.09;;;15.00;53.90
49973;BME280;65693;49.798;10.968;2023-05-11T06:14:18;97893.09;;;15.00;54.04
49973;BME280;65693;49.798;10.968;2023-05-11T06:16:46;97904.59;;;15.01;54.16
49973;BME280;65693;49.798;10.968;2023-05-11T06:19:14;97908.16;;;15.01;53.75
49973;BME280;65693;49.798;10.968;2023-05-11T06:21:41;97905.56;;;15.00;53.84
49973;BME280;65693;49.798;10.968;2023-05-11T06:24:09;97902.06;;;14.99;53.94
49973;BME280;65693;49.798;10.968;2023-05-11T06:26:36;97902.06;;;14.99;53.80
49973;BME280;65693;49.798;10.968;2023-05-11T06:29:02;97904.75;;;14.99;53.94
49973;BME280;65693;49.798;10.968;2023-05-11T06:31:29;97914.56;;;14.99;53.79
49973;BME280;65693;49.798;10.968;2023-05-11T06:33:55;97902.06;;;14.99;53.95
49973;BME280;65693;49.798;10.968;2023-05-11T06:36:23;97911.06;;;14.98;54.08
49973;BME280;65693;49.798;10.968;2023-05-11T06:38:49;97914.66;;;14.97;53.98
49973;BME280;65693;49.798;10.968;2023-05-11T06:41:16;97900.50;;;14.97;54.12
49973;BME280;65693;49.798;10.968;2023-05-11T06:43:42;97902.19;;;14.98;54.04
49973;BME280;65693;49.798;10.968;2023-05-11T06:46:09;97909.34;;;14.97;53.91
49973;BME280;65693;49.798;10.968;2023-05-11T06:48:40;97903.16;;;14.97;54.04
49973;BME280;65693;49.798;10.968;2023-05-11T06:51:08;97904.97;;;14.96;54.24
49973;BME280;65693;49.798;10.968;2023-05-11T06:53:36;97898.81;;;14.96;54.15
49973;BME280;65693;49.798;10.968;2023-05-11T06:56:03;97903.28;;;14.95;53.87
49973;BME280;65693;49.798;10.968;2023-05-11T06:58:29;97900.63;;;14.95;53.86
49973;BME280;65693;49.798;10.968;2023-05-11T07:00:56;97897.94;;;14.95;54.00
49973;BME280;65693;49.798;10.968;2023-05-11T07:03:22;97902.47;;;14.94;54.16
49973;BME280;65693;49.798;10.968;2023-05-11T07:05:48;97902.47;;;14.94;54.02
49973;BME280;65693;49.798;10.968;2023-05-11T07:08:15;97899.78;;;14.94;53.98
49973;BME280;65693;49.798;10.968;2023-05-11T07:10:43;97910.47;;;14.94;53.93
49973;BME280;65693;49.798;10.968;2023-05-11T07:13:09;97906.13;;;14.93;54.08
49973;BME280;65693;49.798;10.968;2023-05-11T07:15:35;97906.94;;;14.94;53.86
49973;BME280;65693;49.798;10.968;2023-05-11T07:18:02;97906.22;;;14.92;53.88
49973;BME280;65693;49.798;10.968;2023-05-11T07:20:29;97909.75;;;14.92;54.02
49973;BME280;65693;49.798;10.968;2023-05-11T07:22:56;97908.91;;;14.92;54.07
49973;BME280;65693;49.798;10.968;2023-05-11T07:25:23;97903.44;;;14.93;53.95
49973;BME280;65693;49.798;10.968;2023-05-11T07:27:51;97909.88;;;14.91;54.00
49973;BME280;65693;49.798;10.968;2023-05-11T07:30:18;97909.75;;;14.92;53.86
49973;BME280;65693;49.798;10.968;2023-05-11T07:32:44;97908.06;;;14.91;53.99
49973;BME280;65693;49.798;10.968;2023-05-11T07:35:11;97914.25;;;14.92;54.03
49973;BME280;65693;49.798;10.968;2023-05-11T07:37:37;97915.09;;;14.92;54.10
49973;BME280;65693;49.798;10.968;2023-05-11T07:40:05;97910.75;;;14.91;54.14
49973;BME280;65693;49.798;10.968;2023-05-11T07:42:31;97911.56;;;14.92;53.99
49973;BME280;65693;49.798;10.968;2023-05-11T07:44:59;97908.06;;;14.91;54.24
49973;BME280;65693;49.798;10.968;2023-05-11T07:47:25;97909.88;;;14.91;54.18
49973;BME280;65693;49.798;10.968;2023-05-11T07:49:52;97908.19;;;14.90;54.10
49973;BME280;65693;49.798;10.968;2023-05-11T07:52:18;97909.88;;;14.91;54.21
49973;BME280;65693;49.798;10.968;2023-05-11T07:54:45;97908.19;;;14.90;54.06
49973;BME280;65693;49.798;10.968;2023-05-11T07:57:11;97910.75;;;14.91;54.31
49973;BME280;65693;49.798;10.968;2023-05-11T07:59:38;97906.38;;;14.90;54.18
49973;BME280;65693;49.798;10.968;2023-05-11T08:02:07;97911.56;;;14.92;54.34
49973;BME280;65693;49.798;10.968;2023-05-11T08:04:34;97907.38;;;14.89;54.17
49973;BME280;65693;49.798;10.968;2023-05-11T08:07:01;97901.88;;;14.91;54.13
49973;BME280;65693;49.798;10.968;2023-05-11T08:09:28;97903.72;;;14.90;53.92
49973;BME280;65693;49.798;10.968;2023-05-11T08:11:54;97904.53;;;14.91;54.05
49973;BME280;65693;49.798;10.968;2023-05-11T08:14:21;97910.84;;;14.90;54.02
49973;BME280;65693;49.798;10.968;2023-05-11T08:16:48;97908.19;;;14.90;53.96
49973;BME280;65693;49.798;10.968;2023-05-11T08:19:16;97913.41;;;14.91;54.04
49973;BME280;65693;49.798;10.968;2023-05-11T08:21:42;97910.84;;;14.90;54.11
49973;BME280;65693;49.798;10.968;2023-05-11T08:24:10;97914.38;;;14.90;54.18
49973;BME280;65693;49.798;10.968;2023-05-11T08:26:36;97915.22;;;14.91;54.15
49973;BME280;65693;49.798;10.968;2023-05-11T08:29:03;97907.38;;;14.89;54.08
49973;BME280;65693;49.798;10.968;2023-05-11T08:31:29;97909.88;;;14.91;54.05
49973;BME280;65693;49.798;10.968;2023-05-11T08:33:56;97919.56;;;14.92;54.18
49973;BME280;65693;49.798;10.968;2023-05-11T08:36:24;97915.38;;;14.89;54.08
49973;BME280;65693;49.798;10.968;2023-05-11T08:38:50;97910.84;;;14.90;54.16
49973;BME280;65693;49.798;10.968;2023-05-11T08:41:17;97911.84;;;14.89;54.10
49973;BME280;65693;49.798;10.968;2023-05-11T08:43:44;97909.88;;;14.91;54.04
49973;BME280;65693;49.798;10.968;2023-05-11T08:46:13;97910.03;;;14.89;54.19
49973;BME280;65693;49.798;10.968;2023-05-11T08:48:43;97909.19;;;14.89;53.99
49973;BME280;65693;49.798;10.968;2023-05-11T08:51:09;97909.19;;;14.89;54.20
49973;BME280;65693;49.798;10.968;2023-05-11T08:53:38;97914.38;;;14.90;54.16
49973;BME280;65693;49.798;10.968;2023-05-11T08:56:06;97910.84;;;14.90;54.12
49973;BME280;65693;49.798;10.968;2023-05-11T08:58:33;97908.31;;;14.88;54.09
49973;BME280;65693;49.798;10.968;2023-05-11T09:01:02;97913.66;;;14.88;54.27
49973;BME280;65693;49.798;10.968;2023-05-11T09:03:28;97916.19;;;14.90;54.13
49973;BME280;65693;49.798;10.968;2023-05-11T09:05:55;97911.84;;;14.89;54.24
49973;BME280;65693;49.798;10.968;2023-05-11T09:08:22;97916.31;;;14.88;54.31
49973;BME280;65693;49.798;10.968;2023-05-11T09:10:52;97915.50;;;14.88;54.25
49973;BME280;65693;49.798;10.968;2023-05-11T09:13:19;97910.97;;;14.88;54.09
49973;BME280;65693;49.798;10.968;2023-05-11T09:15:46;97913.66;;;14.88;54.05
49973;BME280;65693;49.798;10.968;2023-05-11T09:18:12;97911.72;;;14.90;54.12
49973;BME280;65693;49.798;10.968;2023-05-11T09:20:42;97902.16;;;14.88;54.29
49973;BME280;65693;49.798;10.968;2023-05-11T09:23:09;97911.84;;;14.89;53.99
49973;BME280;65693;49.798;10.968;2023-05-11T09:25:36;97908.31;;;14.88;54.23
49973;BME280;65693;49.798;10.968;2023-05-11T09:28:05;97906.50;;;14.89;54.28
49973;BME280;65693;49.798;10.968;2023-05-11T09:30:32;97905.41;;;14.91;54.02
49973;BME280;65693;49.798;10.968;2023-05-11T09:33:00;97910.97;;;14.88;54.17
49973;BME280;65693;49.798;10.968;2023-05-11T09:35:28;97907.47;;;14.88;54.22
49973;BME280;65693;49.798;10.968;2023-05-11T09:37:56;97902.97;;;14.88;54.13
49973;BME280;65693;49.798;10.968;2023-05-11T09:40:23;97907.47;;;14.88;54.26
49973;BME280;65693;49.798;10.968;2023-05-11T09:42:49;97906.50;;;14.89;54.14
49973;BME280;65693;49.798;10.968;2023-05-11T09:45:33;97904.81;;;14.88;54.33
49973;BME280;65693;49.798;10.968;2023-05-11T09:47:59;97905.66;;;14.88;54.33
49973;BME280;65693;49.798;10.968;2023-05-11T09:50:31;97903.97;;;14.87;54.40
49973;BME280;65693;49.798;10.968;2023-05-11T09:52:57;97907.47;;;14.88;54.38
49973;BME280;65693;49.798;10.968;2023-05-11T09:55:24;97896.81;;;14.88;54.14
49973;BME280;65693;49.798;10.968;2023-05-11T09:57:55;97899.47;;;14.88;54.24
49973;BME280;65693;49.798;10.968;2023-05-11T10:00:24;97897.78;;;14.87;54.49
49973;BME280;65693;49.798;10.968;2023-05-11T10:03:04;97896.81;;;14.88;54.26
49973;BME280;65693;49.798;10.968;2023-05-11T10:05:32;97895.94;;;14.87;54.27
49973;BME280;65693;49.798;10.968;2023-05-11T10:08:00;97901.28;;;14.87;54.28
49973;BME280;65693;49.798;10.968;2023-05-11T10:10:28;97893.03;;;14.90;54.26
49973;BME280;65693;49.798;10.968;2023-05-11T10:12:56;97896.81;;;14.88;54.54
49973;BME280;65693;49.798;10.968;2023-05-11T10:15:26;97894.16;;;14.88;54.22
49973;BME280;65693;49.798;10.968;2023-05-11T10:17:53;97887.94;;;14.87;54.29
49973;BME280;65693;49.798;10.968;2023-05-11T10:20:20;97888.81;;;14.88;54.32
49973;BME280;65693;49.798;10.968;2023-05-11T10:22:49;97886.97;;;14.88;54.36
49973;BME280;65693;49.798;10.968;2023-05-11T10:25:17;97889.63;;;14.88;54.41
49973;BME280;65693;49.798;10.968;2023-05-11T10:27:44;97886.13;;;14.88;54.33
49973;BME280;65693;49.798;10.968;2023-05-11T10:30:12;97877.16;;;14.89;54.35
49973;BME280;65693;49.798;10.968;2023-05-11T10:32:40;97881.63;;;14.88;54.49
49973;BME280;65693;49.798;10.968;2023-05-11T10:35:09;97882.63;;;14.87;54.41
49973;BME280;65693;49.798;10.968;2023-05-11T10:37:35;97871.94;;;14.87;54.56
49973;BME280;65693;49.798;10.968;2023-05-11T10:40:03;97872.81;;;14.88;54.42
49973;BME280;65693;49.798;10.968;2023-05-11T10:43:02;97870.97;;;14.88;54.39
49973;BME280;65693;49.798;10.968;2023-05-11T10:45:41;97872.81;;;14.88;54.53
49973;BME280;65693;49.798;10.968;2023-05-11T10:48:51;97870.97;;;14.88;54.64
49973;BME280;65693;49.798;10.968;2023-05-11T10:51:44;97874.50;;;14.89;54.57
49973;BME280;65693;49.798;10.968;2023-05-11T10:54:28;97863.94;;;14.87;54.83
49973;BME280;65693;49.798;10.968;2023-05-11T10:57:12;97868.28;;;14.88;54.63
49973;BME280;65693;49.798;10.968;2023-05-11T11:02:38;97864.78;;;14.88;54.70
49973;BME280;65693;49.798;10.968;2023-05-11T11:05:07;97868.44;;;14.87;54.47
49973;BME280;65693;49.798;10.968;2023-05-11T11:07:56;97862.00;;;14.89;54.49
49973;BME280;65693;49.798;10.968;2023-05-11T11:10:31;97870.97;;;14.88;54.72
49973;BME280;65693;49.798;10.968;2023-05-11T11:13:05;97863.09;;;14.87;54.37
49973;BME280;65693;49.798;10.968;2023-05-11T11:16:06;97868.44;;;14.87;54.67
49973;BME280;65693;49.798;10.968;2023-05-11T11:18:33;97861.28;;;14.87;54.61
49973;BME280;65693;49.798;10.968;2023-05-11T11:21:01;97866.59;;;14.87;54.58
49973;BME280;65693;49.798;10.968;2023-05-11T11:23:46;97861.28;;;14.87;54.61
49973;BME280;65693;49.798;10.968;2023-05-11T11:26:15;97857.78;;;14.87;54.49
49973;BME280;65693;49.798;10.968;2023-05-11T11:29:08;97857.78;;;14.87;54.56
49973;BME280;65693;49.798;10.968;2023-05-11T11:31:37;97853.41;;;14.86;54.73
49973;BME280;65693;49.798;10.968;2023-05-11T11:34:35;97861.16;;;14.89;54.72
49973;BME280;65693;49.798;10.968;2023-05-11T11:37:08;97855.94;;;14.87;54.63
49973;BME280;65693;49.798;10.968;2023-05-11T11:39:47;97853.28;;;14.87;54.61
49973;BME280;65693;49.798;10.968;2023-05-11T11:42:15;97857.78;;;14.87;54.78
49973;BME280;65693;49.798;10.968;2023-05-11T11:44:43;97859.47;;;14.88;54.46
49973;BME280;65693;49.798;10.968;2023-05-11T11:47:10;97849.78;;;14.87;54.69
49973;BME280;65693;49.798;10.968;2023-05-11T11:49:38;97858.59;;;14.87;54.76
49973;BME280;65693;49.798;10.968;2023-05-11T11:52:11;97860.28;;;14.88;54.63
49973;BME280;65693;49.798;10.968;2023-05-11T11:54:38;97858.59;;;14.87;54.74
49973;BME280;65693;49.798;10.968;2023-05-11T11:57:42;97857.78;;;14.87;54.65
49973;BME280;65693;49.798;10.968;2023-05-11T12:00:19;97853.16;;;14.89;54.65
49973;BME280;65693;49.798;10.968;2023-05-11T12:02:45;97856.91;;;14.86;54.40
49973;BME280;65693;49.798;10.968;2023-05-11T12:05:13;97856.91;;;14.86;54.64
49973;BME280;65693;49.798;10.968;2023-05-11T12:07:45;97861.16;;;14.89;54.49
49973;BME280;65693;49.798;10.968;2023-05-11T12:10:13;97867.47;;;14.88;54.73
49973;BME280;65693;49.798;10.968;2023-05-11T12:12:43;97866.47;;;14.89;54.63
49973;BME280;65693;49.798;10.968;2023-05-11T12:15:21;97862.13;;;14.88;54.77
49973;BME280;65693;49.798;10.968;2023-05-11T12:17:48;97867.34;;;14.89;54.94
49973;BME280;65693;49.798;10.968;2023-05-11T12:20:15;97864.78;;;14.88;54.72
49973;BME280;65693;49.798;10.968;2023-05-11T12:22:44;97864.53;;;14.91;54.73
49973;BME280;65693;49.798;10.968;2023-05-11T12:25:13;97866.09;;;14.93;54.61
49973;BME280;65693;49.798;10.968;2023-05-11T12:27:48;97873.13;;;14.94;54.70
49973;BME280;65693;49.798;10.968;2023-05-11T12:30:18;97860.75;;;14.93;54.81
49973;BME280;65693;49.798;10.968;2023-05-11T12:32:46;97870.56;;;14.93;54.72
49973;BME280;65693;49.798;10.968;2023-05-11T12:35:13;97869.59;;;14.94;54.56
49973;BME280;65693;49.798;10.968;2023-05-11T12:37:41;97870.56;;;14.93;54.74
49973;BME280;65693;49.798;10.968;2023-05-11T12:40:12;97862.00;;;14.89;54.72
49973;BME280;65693;49.798;10.968;2023-05-11T12:42:48;97865.50;;;14.90;54.89
49973;BME280;65693;49.798;10.968;2023-05-11T12:45:17;97862.00;;;14.89;55.08
49973;BME280;65693;49.798;10.968;2023-05-11T12:47:46;97867.34;;;14.89;54.92
49973;BME280;65693;49.798;10.968;2023-05-11T12:50:14;97858.47;;;14.89;55.07
49973;BME280;65693;49.798;10.968;2023-05-11T12:52:42;97862.84;;;14.90;54.94
49973;BME280;65693;49.798;10.968;2023-05-11T12:55:12;97861.16;;;14.89;54.87
49973;BME280;65693;49.798;10.968;2023-05-11T12:57:41;97862.97;;;14.88;54.91
49973;BME280;65693;49.798;10.968;2023-05-11T13:00:10;97866.47;;;14.89;54.92
49973;BME280;65693;49.798;10.968;2023-05-11T13:02:49;97866.47;;;14.89;55.04